createdAt,value
2019-05-22T00:02:27.068Z,13.52
2019-05-22T00:04:58.259Z,13.36
2019-05-22T00:07:28.564Z,13.23
2019-05-22T00:09:58.715Z,13.20
2019-05-22T00:12:29.024Z,13.07
2019-05-22T00:14:58.596Z,13.13
2019-05-22T00:17:30.500Z,13.23
2019-05-22T00:20:03.412Z,13.79
2019-05-22T00:22:34.421Z,13.47
2019-05-22T00:25:05.096Z,13.51
2019-05-22T00:27:37.018Z,13.81
2019-05-22T00:30:10.030Z,13.56
2019-05-22T00:32:41.822Z,13.46
2019-05-22T00:35:12.602Z,13.29
2019-05-22T00:37:42.692Z,13.20
2019-05-22T00:40:15.057Z,13.18
2019-05-22T00:43:02.562Z,13.00
2019-05-22T00:45:20.573Z,12.89
2019-05-22T00:47:52.062Z,13.00
2019-05-22T00:50:24.582Z,13.10
2019-05-22T00:52:55.785Z,13.05
2019-05-22T00:55:47.519Z,12.93
2019-05-22T00:58:19.708Z,12.76
2019-05-22T01:00:52.222Z,12.74
2019-05-22T01:03:23.381Z,13.02
2019-05-22T01:05:54.469Z,12.87
2019-05-22T01:08:25.898Z,12.71
2019-05-22T01:10:56.993Z,12.61
2019-05-22T01:13:32.556Z,12.45
2019-05-22T01:16:02.547Z,12.62
2019-05-22T01:18:32.080Z,12.59
2019-05-22T01:21:03.296Z,12.56
2019-05-22T01:23:34.632Z,12.48
2019-05-22T01:26:05.664Z,12.25
2019-05-22T01:28:36.962Z,12.10
2019-05-22T01:31:11.033Z,12.17
2019-05-22T01:33:44.985Z,12.16
2019-05-22T01:36:19.260Z,12.17
2019-05-22T01:38:48.732Z,12.13
2019-05-22T01:41:34.127Z,12.10
2019-05-22T01:44:06.863Z,11.73
2019-05-22T01:46:39.763Z,11.82
2019-05-22T01:49:12.201Z,11.80
2019-05-22T01:51:43.009Z,11.92
2019-05-22T01:54:13.218Z,12.09
2019-05-22T01:56:43.231Z,12.05
2019-05-22T01:59:13.523Z,12.32
2019-05-22T02:01:44.729Z,12.38
2019-05-22T02:04:15.044Z,12.28
2019-05-22T02:06:45.039Z,12.28
2019-05-22T02:09:27.938Z,13.72
2019-05-22T02:12:00.385Z,12.78
2019-05-22T02:14:30.707Z,12.41
2019-05-22T02:17:01.293Z,12.42
2019-05-22T02:19:31.210Z,12.65
2019-05-22T02:22:01.662Z,12.38
2019-05-22T02:24:32.017Z,12.33
2019-05-22T02:27:03.072Z,12.14
2019-05-22T02:29:32.726Z,12.21
2019-05-22T02:32:02.108Z,12.08
2019-05-22T02:34:31.630Z,12.32
2019-05-22T02:37:01.545Z,12.32
2019-05-22T02:39:35.534Z,12.24
2019-05-22T02:42:12.321Z,12.11
2019-05-22T02:44:42.675Z,12.63
2019-05-22T02:47:19.692Z,12.31
2019-05-22T02:49:45.400Z,12.39
2019-05-22T02:52:16.599Z,12.44
2019-05-22T02:54:47.250Z,12.40
2019-05-22T02:57:17.827Z,12.45
2019-05-22T02:59:48.469Z,12.58
2019-05-22T03:02:18.312Z,12.40
2019-05-22T03:05:01.729Z,12.37
2019-05-22T03:07:31.608Z,12.29
2019-05-22T03:10:02.432Z,12.64
2019-05-22T03:12:33.168Z,12.27
2019-05-22T03:15:04.030Z,12.34
2019-05-22T03:17:35.121Z,12.28
2019-05-22T03:20:12.998Z,12.33
2019-05-22T03:22:55.300Z,12.35
2019-05-22T03:25:28.083Z,12.50
2019-05-22T03:27:57.754Z,12.19
2019-05-22T03:30:34.499Z,12.32
2019-05-22T03:33:06.265Z,12.46
2019-05-22T03:35:47.802Z,12.66
2019-05-22T03:38:18.996Z,12.96
2019-05-22T03:40:51.108Z,12.25
2019-05-22T03:43:26.999Z,11.85
2019-05-22T03:45:58.975Z,11.80
2019-05-22T03:48:29.546Z,11.85
2019-05-22T03:51:20.141Z,11.97
2019-05-22T03:53:49.910Z,11.90
2019-05-22T03:56:21.217Z,11.90
2019-05-22T03:58:50.595Z,11.93
2019-05-22T04:01:22.085Z,11.77
2019-05-22T04:03:51.546Z,11.86
2019-05-22T04:06:23.301Z,11.72
2019-05-22T04:08:54.124Z,11.79
2019-05-22T04:11:26.557Z,11.62
2019-05-22T04:13:55.930Z,11.95
2019-05-22T04:16:27.498Z,11.80
2019-05-22T04:18:57.738Z,11.90
2019-05-22T04:21:30.307Z,12.09
2019-05-22T04:24:00.674Z,12.34
2019-05-22T04:26:32.762Z,12.25
2019-05-22T04:29:03.465Z,12.42
2019-05-22T04:31:42.028Z,12.21
2019-05-22T04:34:11.848Z,11.92
2019-05-22T04:36:41.224Z,12.06
2019-05-22T04:39:15.530Z,11.87
2019-05-22T04:41:45.476Z,11.81
2019-05-22T04:44:15.395Z,11.99
2019-05-22T04:46:44.830Z,11.70
2019-05-22T04:49:14.376Z,11.80
2019-05-22T04:51:44.231Z,12.42
2019-05-22T04:54:13.780Z,12.75
2019-05-22T04:56:43.948Z,12.89
2019-05-22T04:59:14.426Z,12.95
2019-05-22T05:01:43.877Z,13.08
2019-05-22T05:04:14.013Z,12.91
2019-05-22T05:06:44.167Z,13.34
2019-05-22T05:09:15.827Z,13.40
2019-05-22T05:11:45.421Z,13.24
2019-05-22T05:14:14.883Z,13.35
2019-05-22T05:16:44.407Z,14.11
2019-05-22T05:19:13.886Z,13.63
2019-05-22T05:21:44.199Z,13.64
2019-05-22T05:24:14.049Z,13.83
2019-05-22T05:26:44.550Z,14.53
2019-05-22T05:29:28.549Z,14.00
2019-05-22T05:31:59.672Z,14.05
2019-05-22T05:34:32.357Z,14.15
2019-05-22T05:37:03.228Z,14.75
2019-05-22T05:39:40.020Z,14.78
2019-05-22T05:42:09.764Z,14.44
2019-05-22T05:44:39.227Z,14.81
2019-05-22T05:47:09.356Z,14.73
2019-05-22T05:49:39.192Z,15.18
2019-05-22T05:52:10.278Z,15.34
2019-05-22T05:54:41.616Z,15.44
2019-05-22T05:57:37.631Z,15.59
2019-05-22T06:00:14.090Z,15.45
2019-05-22T06:02:56.011Z,15.36
2019-05-22T06:05:16.312Z,15.53
2019-05-22T06:07:45.939Z,15.37
2019-05-22T06:10:31.331Z,15.16
2019-05-22T06:13:01.637Z,15.38
2019-05-22T06:15:46.588Z,15.58
2019-05-22T06:18:21.104Z,15.77
2019-05-22T06:21:03.219Z,16.16
2019-05-22T06:23:31.934Z,15.94
2019-05-22T06:26:02.429Z,16.13
2019-05-22T06:28:39.222Z,16.43
2019-05-22T06:31:13.298Z,16.49
2019-05-22T06:33:43.029Z,17.07
2019-05-22T06:36:14.318Z,16.50
2019-05-22T06:38:53.269Z,16.85
2019-05-22T06:41:28.250Z,16.93
2019-05-22T06:44:20.034Z,17.00
2019-05-22T06:46:48.779Z,16.87
2019-05-22T06:49:35.907Z,17.26
2019-05-22T06:52:07.518Z,17.14
2019-05-22T06:54:38.413Z,16.64
2019-05-22T06:57:13.664Z,17.35
2019-05-22T06:59:43.565Z,17.34
2019-05-22T07:02:15.216Z,17.83
2019-05-22T07:04:44.990Z,17.51
2019-05-22T07:07:15.601Z,18.18
2019-05-22T07:09:45.630Z,18.95
2019-05-22T07:12:18.189Z,18.85
2019-05-22T07:15:06.752Z,18.34
2019-05-22T07:17:37.352Z,18.04
2019-05-22T07:20:08.178Z,19.01
2019-05-22T07:22:37.892Z,19.74
2019-05-22T07:25:09.506Z,20.89
2019-05-22T07:27:41.169Z,22.22
2019-05-22T07:30:11.057Z,22.71
2019-05-22T07:32:40.946Z,21.04
2019-05-22T07:35:10.552Z,22.60
2019-05-22T07:37:42.613Z,20.97
2019-05-22T07:40:13.435Z,23.15
2019-05-22T07:42:42.897Z,22.63
2019-05-22T07:45:13.428Z,22.42
2019-05-22T07:47:42.874Z,20.81
2019-05-22T07:50:13.353Z,22.02
2019-05-22T07:52:43.695Z,23.04
2019-05-22T07:55:14.241Z,22.13
2019-05-22T07:57:46.952Z,21.91
2019-05-22T08:00:17.272Z,21.34
2019-05-22T08:02:49.091Z,21.11
2019-05-22T08:05:21.244Z,21.02
2019-05-22T08:07:52.901Z,20.73
2019-05-22T08:10:22.720Z,20.42
2019-05-22T08:12:53.604Z,20.40
2019-05-22T08:15:23.821Z,20.50
2019-05-22T08:17:53.495Z,20.15
2019-05-22T08:20:23.318Z,20.32
2019-05-22T08:22:55.469Z,21.14
2019-05-22T08:25:25.445Z,20.90
2019-05-22T08:27:56.052Z,21.85
2019-05-22T08:30:25.829Z,21.05
2019-05-22T08:32:58.375Z,22.38
2019-05-22T08:35:28.431Z,22.69
2019-05-22T08:37:58.290Z,23.51
2019-05-22T08:40:28.864Z,24.21
2019-05-22T08:42:58.585Z,24.39
2019-05-22T08:45:28.786Z,23.71
2019-05-22T08:47:58.841Z,22.60
2019-05-22T08:50:31.073Z,22.64
2019-05-22T08:53:01.024Z,22.65
2019-05-22T08:55:34.212Z,22.64
2019-05-22T08:58:05.874Z,22.46
2019-05-22T09:00:35.564Z,22.79
2019-05-22T09:03:05.856Z,22.13
2019-05-22T09:05:35.402Z,22.28
2019-05-22T09:08:04.969Z,21.13
2019-05-22T09:10:34.529Z,20.96
2019-05-22T09:13:04.347Z,21.67
2019-05-22T09:15:34.923Z,21.10
2019-05-22T09:18:05.020Z,20.93
2019-05-22T09:20:48.129Z,21.43
2019-05-22T09:23:06.104Z,21.72
2019-05-22T09:25:35.686Z,21.56
2019-05-22T09:28:06.691Z,21.76
2019-05-22T09:30:37.537Z,21.31
2019-05-22T09:33:08.819Z,21.30
2019-05-22T09:35:38.567Z,21.33
2019-05-22T09:38:07.967Z,21.35
2019-05-22T09:40:37.775Z,21.35
2019-05-22T09:43:07.220Z,21.72
2019-05-22T09:45:36.952Z,21.18
2019-05-22T09:48:07.823Z,20.92
2019-05-22T09:50:38.918Z,21.38
2019-05-22T09:53:09.216Z,21.10
2019-05-22T09:55:39.509Z,20.98
2019-05-22T09:58:09.035Z,21.42
2019-05-22T10:00:39.184Z,21.25
2019-05-22T10:03:09.126Z,21.89
2019-05-22T10:05:38.727Z,21.38
2019-05-22T10:08:08.831Z,21.57
2019-05-22T10:10:39.668Z,21.41
2019-05-22T10:13:09.699Z,21.10
2019-05-22T10:15:39.824Z,21.79
2019-05-22T10:18:09.445Z,22.57
2019-05-22T10:20:39.450Z,23.06
2019-05-22T10:23:15.514Z,23.22
2019-05-22T10:25:41.071Z,22.26
2019-05-22T10:28:12.133Z,22.67
2019-05-22T10:30:41.660Z,24.20
2019-05-22T10:33:11.228Z,23.16
2019-05-22T10:35:41.099Z,23.30
2019-05-22T10:38:10.508Z,24.40
2019-05-22T10:40:40.000Z,24.52
2019-05-22T10:43:09.652Z,22.84
2019-05-22T10:45:39.428Z,23.04
2019-05-22T10:48:08.886Z,22.98
2019-05-22T10:50:38.913Z,22.48
2019-05-22T10:53:09.102Z,22.57
2019-05-22T10:55:39.499Z,23.44
2019-05-22T10:58:09.619Z,22.33
2019-05-22T11:00:40.036Z,22.77
2019-05-22T11:03:10.084Z,23.13
2019-05-22T11:05:41.452Z,23.25
2019-05-22T11:08:12.111Z,22.48
2019-05-22T11:10:45.033Z,23.53
2019-05-22T11:13:12.983Z,23.37
2019-05-22T11:15:42.366Z,22.20
2019-05-22T11:18:12.028Z,23.06
2019-05-22T11:20:43.211Z,23.40
2019-05-22T11:23:12.870Z,22.81
2019-05-22T11:25:42.254Z,22.55
2019-05-22T11:28:11.724Z,22.71
2019-05-22T11:30:42.596Z,22.55
2019-05-22T11:33:12.265Z,22.91
2019-05-22T11:35:41.989Z,22.65
2019-05-22T11:38:12.028Z,22.40
2019-05-22T11:40:42.679Z,22.34
2019-05-22T11:43:13.062Z,22.42
2019-05-22T11:45:45.352Z,22.33
2019-05-22T11:48:14.638Z,22.63
2019-05-22T11:50:44.569Z,22.18
2019-05-22T11:53:14.821Z,22.26
2019-05-22T11:55:46.084Z,21.63
2019-05-22T11:58:15.490Z,21.99
2019-05-22T12:00:46.119Z,22.14
2019-05-22T12:03:15.635Z,22.05
2019-05-22T12:05:45.789Z,22.90
2019-05-22T12:08:15.733Z,23.43
2019-05-22T12:10:45.676Z,23.61
2019-05-22T12:13:15.492Z,23.71
2019-05-22T12:15:45.351Z,22.40
2019-05-22T12:18:15.889Z,23.19
2019-05-22T12:20:46.446Z,23.83
2019-05-22T12:23:16.086Z,24.34
2019-05-22T12:25:46.522Z,24.41
2019-05-22T12:28:16.597Z,22.14
2019-05-22T12:30:47.999Z,22.50
2019-05-22T12:33:18.324Z,23.90
2019-05-22T12:35:49.210Z,23.86
2019-05-22T12:38:19.441Z,25.06
2019-05-22T12:40:48.926Z,25.19
2019-05-22T12:43:18.620Z,22.64
2019-05-22T12:45:49.040Z,23.48
2019-05-22T12:48:19.942Z,23.39
2019-05-22T12:50:49.386Z,23.22
2019-05-22T12:53:19.031Z,23.08
2019-05-22T12:55:49.387Z,23.78
2019-05-22T12:58:20.338Z,23.19
2019-05-22T13:00:50.717Z,22.55
2019-05-22T13:03:20.742Z,22.68
2019-05-22T13:05:50.744Z,22.34
2019-05-22T13:08:21.025Z,24.02
2019-05-22T13:10:52.424Z,22.18
2019-05-22T13:13:22.717Z,22.06
2019-05-22T13:15:52.438Z,22.83
2019-05-22T13:18:24.029Z,23.97
2019-05-22T13:20:54.263Z,23.28
2019-05-22T13:23:26.695Z,24.03
2019-05-22T13:25:56.315Z,23.60
2019-05-22T13:28:28.349Z,23.36
2019-05-22T13:30:59.863Z,23.07
2019-05-22T13:33:29.396Z,23.60
2019-05-22T13:35:59.506Z,23.88
2019-05-22T13:38:29.129Z,23.70
2019-05-22T13:40:58.813Z,22.40
2019-05-22T13:43:28.661Z,22.25
2019-05-22T13:45:58.126Z,22.50
2019-05-22T13:48:28.320Z,22.49
2019-05-22T13:50:59.263Z,22.37
2019-05-22T13:53:29.613Z,22.03
2019-05-22T13:55:59.622Z,21.71
2019-05-22T13:58:30.051Z,22.74
2019-05-22T14:00:59.806Z,22.08
2019-05-22T14:03:29.653Z,22.14
2019-05-22T14:05:59.417Z,22.29
2019-05-22T14:08:29.755Z,21.63
2019-05-22T14:10:59.259Z,21.52
2019-05-22T14:13:29.197Z,21.69
2019-05-22T14:15:59.017Z,21.65
2019-05-22T14:18:29.527Z,22.39
2019-05-22T14:20:59.094Z,22.79
2019-05-22T14:23:29.145Z,22.97
2019-05-22T14:25:59.663Z,22.67
2019-05-22T14:28:30.047Z,21.91
2019-05-22T14:30:59.513Z,23.06
2019-05-22T14:33:30.122Z,21.88
2019-05-22T14:35:59.672Z,22.47
2019-05-22T14:38:30.325Z,22.47
2019-05-22T14:41:01.428Z,22.98
2019-05-22T14:43:31.228Z,23.21
2019-05-22T14:46:01.435Z,23.04
2019-05-22T14:48:31.220Z,23.38
2019-05-22T14:51:01.371Z,23.02
2019-05-22T14:53:31.794Z,23.27
2019-05-22T14:56:01.925Z,23.57
2019-05-22T14:58:32.633Z,24.30
2019-05-22T15:01:02.616Z,23.62
2019-05-22T15:03:32.880Z,23.45
2019-05-22T15:06:02.542Z,21.84
2019-05-22T15:08:33.240Z,22.17
2019-05-22T15:11:03.103Z,22.88
2019-05-22T15:13:34.212Z,21.87
2019-05-22T15:16:03.680Z,21.79
2019-05-22T15:18:34.069Z,22.47
2019-05-22T15:21:09.432Z,22.16
2019-05-22T15:23:39.366Z,22.49
2019-05-22T15:26:09.275Z,22.49
2019-05-22T15:28:39.419Z,21.95
2019-05-22T15:31:09.120Z,22.49
2019-05-22T15:33:39.253Z,21.87
2019-05-22T15:36:10.537Z,22.90
2019-05-22T15:38:40.938Z,21.89
2019-05-22T15:41:11.415Z,22.81
2019-05-22T15:43:44.381Z,21.53
2019-05-22T15:46:15.730Z,21.74
2019-05-22T15:48:47.423Z,21.62
2019-05-22T15:51:18.416Z,21.32
2019-05-22T15:53:48.086Z,22.18
2019-05-22T15:56:18.914Z,22.44
2019-05-22T15:58:51.479Z,22.70
2019-05-22T16:01:22.577Z,22.80
2019-05-22T16:03:53.266Z,22.86
2019-05-22T16:06:25.968Z,22.56
2019-05-22T16:08:57.297Z,22.72
2019-05-22T16:11:27.598Z,23.14
2019-05-22T16:13:59.647Z,22.85
2019-05-22T16:16:30.330Z,22.74
2019-05-22T16:19:03.022Z,22.53
2019-05-22T16:21:33.422Z,22.32
2019-05-22T16:24:03.988Z,22.09
2019-05-22T16:26:33.489Z,22.55
2019-05-22T16:29:03.408Z,21.98
2019-05-22T16:31:33.397Z,22.25
2019-05-22T16:34:02.869Z,22.07
2019-05-22T16:36:33.152Z,22.03
2019-05-22T16:39:04.288Z,21.79
2019-05-22T16:41:34.816Z,21.85
2019-05-22T16:44:04.648Z,21.71
2019-05-22T16:46:35.182Z,21.69
2019-05-22T16:49:04.796Z,21.17
2019-05-22T16:51:34.828Z,20.86
2019-05-22T16:54:08.014Z,21.42
2019-05-22T16:56:40.492Z,21.35
2019-05-22T16:59:11.897Z,20.71
2019-05-22T17:01:57.759Z,20.78
2019-05-22T17:04:14.552Z,20.70
2019-05-22T17:06:45.292Z,20.89
2019-05-22T17:09:16.475Z,20.79
2019-05-22T17:11:46.968Z,20.62
2019-05-22T17:14:18.005Z,20.62
2019-05-22T17:16:47.451Z,20.48
2019-05-22T17:19:27.051Z,19.86
2019-05-22T17:21:50.212Z,19.93
2019-05-22T17:24:20.031Z,20.25
2019-05-22T17:26:52.476Z,20.43
2019-05-22T17:29:23.342Z,19.92
2019-05-22T17:31:53.322Z,19.41
2019-05-22T17:34:33.500Z,19.65
2019-05-22T17:37:27.915Z,19.72
2019-05-22T17:39:57.654Z,19.52
2019-05-22T17:42:28.027Z,19.16
2019-05-22T17:44:57.673Z,19.35
2019-05-22T17:47:27.736Z,19.41
2019-05-22T17:49:58.781Z,19.37
2019-05-22T17:52:28.494Z,19.31
2019-05-22T17:54:58.721Z,20.05
2019-05-22T17:57:29.672Z,19.46
2019-05-22T17:59:59.341Z,19.31
2019-05-22T18:02:30.670Z,18.54
2019-05-22T18:05:01.955Z,19.43
2019-05-22T18:07:33.510Z,19.26
2019-05-22T18:10:03.465Z,19.07
2019-05-22T18:12:33.896Z,18.81
2019-05-22T18:15:04.380Z,18.39
2019-05-22T18:17:33.926Z,18.64
2019-05-22T18:20:04.544Z,18.67
2019-05-22T18:22:34.268Z,18.58
2019-05-22T18:25:05.163Z,18.60
2019-05-22T18:27:35.221Z,18.58
2019-05-22T18:30:08.927Z,18.56
2019-05-22T18:32:41.857Z,18.26
2019-05-22T18:35:13.961Z,17.94
2019-05-22T18:37:43.486Z,18.78
2019-05-22T18:40:13.811Z,18.26
2019-05-22T18:42:43.366Z,18.30
2019-05-22T18:45:13.772Z,18.13
2019-05-22T18:47:44.090Z,18.03
2019-05-22T18:50:14.791Z,17.47
2019-05-22T18:52:48.933Z,17.54
2019-05-22T18:55:20.801Z,17.50
2019-05-22T18:57:50.341Z,17.46
2019-05-22T19:00:23.163Z,17.61
2019-05-22T19:02:52.855Z,17.33
2019-05-22T19:05:25.363Z,17.22
2019-05-22T19:07:55.099Z,17.13
2019-05-22T19:10:24.803Z,16.90
2019-05-22T19:12:54.273Z,16.82
2019-05-22T19:15:24.867Z,16.78
2019-05-22T19:17:54.585Z,16.64
2019-05-22T19:20:24.211Z,16.37
2019-05-22T19:23:00.547Z,16.05
2019-05-22T19:25:25.740Z,16.02
2019-05-22T19:27:55.183Z,15.92
2019-05-22T19:30:26.298Z,15.87
2019-05-22T19:32:56.149Z,15.66
2019-05-22T19:35:25.622Z,15.80
2019-05-22T19:37:55.813Z,15.85
2019-05-22T19:40:26.243Z,15.60
2019-05-22T19:42:57.325Z,15.46
2019-05-22T19:45:30.610Z,15.20
2019-05-22T19:47:58.590Z,15.31
2019-05-22T19:50:29.181Z,15.20
2019-05-22T19:53:15.729Z,15.40
2019-05-22T19:55:31.248Z,15.08
2019-05-22T19:58:01.461Z,15.17
2019-05-22T20:00:31.721Z,15.16
2019-05-22T20:03:02.044Z,15.10
2019-05-22T20:05:33.294Z,15.06
2019-05-22T20:08:03.504Z,14.69
2019-05-22T20:10:33.894Z,14.87
2019-05-22T20:13:05.666Z,14.85
2019-05-22T20:15:35.156Z,14.75
2019-05-22T20:18:04.917Z,14.77
2019-05-22T20:20:34.702Z,14.71
2019-05-22T20:23:05.111Z,14.60
2019-05-22T20:25:35.722Z,14.70
2019-05-22T20:28:07.028Z,14.56
2019-05-22T20:30:36.717Z,14.44
2019-05-22T20:33:07.985Z,14.47
2019-05-22T20:35:37.920Z,14.16
2019-05-22T20:38:08.065Z,14.30
2019-05-22T20:40:37.757Z,14.34
2019-05-22T20:43:08.848Z,14.37
2019-05-22T20:45:40.943Z,14.26
2019-05-22T20:48:13.798Z,14.30
2019-05-22T20:50:44.052Z,14.14
2019-05-22T20:53:16.144Z,14.04
2019-05-22T20:55:46.546Z,14.14
2019-05-22T20:58:17.739Z,14.16
2019-05-22T21:00:49.020Z,14.74
2019-05-22T21:03:21.553Z,14.14
2019-05-22T21:05:52.838Z,13.95
2019-05-22T21:08:25.156Z,13.89
2019-05-22T21:10:56.285Z,13.91
2019-05-22T21:13:26.118Z,13.91
2019-05-22T21:15:56.059Z,13.86
2019-05-22T21:18:28.329Z,13.67
2019-05-22T21:20:57.723Z,13.47
2019-05-22T21:23:29.298Z,13.38
2019-05-22T21:25:58.098Z,13.73
2019-05-22T21:28:28.014Z,13.55
2019-05-22T21:30:57.642Z,13.40
2019-05-22T21:33:27.983Z,13.55
2019-05-22T21:35:57.653Z,13.18
2019-05-22T21:38:27.091Z,13.22
2019-05-22T21:40:58.637Z,13.33
2019-05-22T21:43:29.325Z,13.36
2019-05-22T21:45:59.587Z,14.03
2019-05-22T21:48:29.808Z,13.44
2019-05-22T21:51:00.545Z,13.48
2019-05-22T21:53:30.514Z,13.13
2019-05-22T21:56:04.705Z,13.07
2019-05-22T21:58:32.091Z,12.96
2019-05-22T22:01:04.754Z,12.98
2019-05-22T22:03:38.750Z,12.79
2019-05-22T22:06:08.311Z,12.73
2019-05-22T22:08:37.978Z,14.14
2019-05-22T22:11:08.721Z,13.02
2019-05-22T22:13:39.049Z,13.54
2019-05-22T22:16:08.583Z,12.85
2019-05-22T22:18:39.941Z,12.87
2019-05-22T22:21:09.614Z,12.70
2019-05-22T22:23:40.851Z,12.30
2019-05-22T22:26:24.717Z,12.30
2019-05-22T22:28:42.458Z,12.43
2019-05-22T22:31:20.414Z,12.56
2019-05-22T22:33:52.933Z,12.53
2019-05-22T22:36:23.030Z,12.63
2019-05-22T22:38:54.122Z,12.52
2019-05-22T22:41:24.106Z,12.48
2019-05-22T22:43:55.000Z,12.25
2019-05-22T22:46:45.964Z,12.15
2019-05-22T22:49:17.324Z,12.51
2019-05-22T22:51:48.913Z,12.36
2019-05-22T22:54:19.511Z,12.47
2019-05-22T22:56:49.172Z,12.30
2019-05-22T22:59:18.922Z,12.33
2019-05-22T23:01:52.676Z,12.36
2019-05-22T23:04:24.527Z,12.04
2019-05-22T23:06:57.459Z,12.23
2019-05-22T23:09:27.690Z,12.14
2019-05-22T23:11:57.618Z,12.16
2019-05-22T23:14:27.658Z,12.00
2019-05-22T23:16:57.171Z,11.98
2019-05-22T23:19:33.540Z,11.90
2019-05-22T23:22:03.245Z,12.13
2019-05-22T23:24:33.973Z,12.14
2019-05-22T23:27:04.962Z,12.22
2019-05-22T23:29:34.812Z,12.12
2019-05-22T23:32:06.193Z,12.31
2019-05-22T23:34:36.151Z,12.35
2019-05-22T23:37:07.586Z,12.44
2019-05-22T23:39:37.205Z,12.16
2019-05-22T23:42:10.031Z,12.28
2019-05-22T23:44:41.084Z,12.20
2019-05-22T23:47:11.312Z,12.33
2019-05-22T23:49:41.438Z,12.44
2019-05-22T23:52:12.903Z,12.36
2019-05-22T23:54:44.066Z,12.19
2019-05-22T23:57:15.458Z,12.31
2019-05-22T23:59:47.048Z,12.52
